createdAt,value
2022-11-17T00:00:06.324Z,97484.00
2022-11-17T00:03:03.855Z,97486.40
2022-11-17T00:06:01.301Z,97479.20
2022-11-17T00:08:59.610Z,97474.00
2022-11-17T00:12:17.992Z,97460.60
2022-11-17T00:15:21.289Z,97458.00
2022-11-17T00:18:52.940Z,97460.00
2022-11-17T00:21:50.619Z,97456.80
2022-11-17T00:24:48.123Z,97458.20
2022-11-17T00:27:45.595Z,97457.00
2022-11-17T00:31:00.787Z,97463.60
2022-11-17T00:34:07.287Z,97463.40
2022-11-17T00:37:05.686Z,97467.80
2022-11-17T00:40:04.066Z,97466.40
2022-11-17T00:43:01.579Z,97457.40
2022-11-17T00:45:59.405Z,97457.00
2022-11-17T00:48:56.905Z,97465.40
2022-11-17T00:51:54.359Z,97468.20
2022-11-17T00:54:51.821Z,97465.80
2022-11-17T00:57:49.280Z,97458.00
2022-11-17T01:00:46.763Z,97459.40
2022-11-17T01:03:44.585Z,97469.80
2022-11-17T01:06:42.073Z,97473.20
2022-11-17T01:09:39.545Z,97457.60
2022-11-17T01:12:36.996Z,97449.80
2022-11-17T01:15:35.293Z,97451.80
2022-11-17T01:18:33.575Z,97445.80
2022-11-17T01:21:31.106Z,97438.60
2022-11-17T01:24:28.596Z,97438.80
2022-11-17T01:27:26.090Z,97438.00
2022-11-17T01:30:23.550Z,97433.20
2022-11-17T01:33:21.001Z,97436.60
2022-11-17T01:36:18.466Z,97431.00
2022-11-17T01:39:16.009Z,97422.60
2022-11-17T01:42:13.436Z,97422.60
2022-11-17T01:45:10.902Z,97425.00
2022-11-17T01:48:08.357Z,97422.00
2022-11-17T01:51:06.224Z,97422.80
2022-11-17T01:54:03.677Z,97428.00
2022-11-17T01:57:02.162Z,97431.40
2022-11-17T01:59:59.741Z,97426.60
2022-11-17T02:02:57.296Z,97418.80
2022-11-17T02:05:54.811Z,97418.60
2022-11-17T02:08:52.296Z,97408.40
2022-11-17T02:11:50.049Z,97404.40
2022-11-17T02:14:49.145Z,97406.00
2022-11-17T02:17:46.728Z,97402.60
2022-11-17T02:20:44.697Z,97406.40
2022-11-17T02:23:43.741Z,97402.60
2022-11-17T02:26:41.330Z,97392.20
2022-11-17T02:29:38.850Z,97397.20
2022-11-17T02:32:36.516Z,97395.80
2022-11-17T02:35:34.391Z,97390.00
2022-11-17T02:38:32.182Z,97385.80
2022-11-17T02:41:29.847Z,97383.60
2022-11-17T02:44:31.066Z,97378.00
2022-11-17T02:47:31.878Z,97375.20
2022-11-17T02:50:29.911Z,97374.60
2022-11-17T02:53:35.818Z,97374.60
2022-11-17T02:56:33.906Z,97373.00
2022-11-17T02:59:31.381Z,97370.20
2022-11-17T03:02:28.920Z,97375.20
2022-11-17T03:05:26.686Z,97379.40
2022-11-17T03:08:26.533Z,97381.40
2022-11-17T03:11:27.665Z,97386.20
2022-11-17T03:14:25.133Z,97388.40
2022-11-17T03:17:22.653Z,97387.80
2022-11-17T03:20:20.146Z,97388.80
2022-11-17T03:23:17.668Z,97391.40
2022-11-17T03:26:15.135Z,97391.00
2022-11-17T03:29:12.694Z,97386.20
2022-11-17T03:32:10.251Z,97382.60
2022-11-17T03:35:07.715Z,97389.00
2022-11-17T03:38:05.820Z,97386.00
2022-11-17T03:41:04.434Z,97383.20
2022-11-17T03:44:02.128Z,97380.60
2022-11-17T03:50:14.966Z,97386.00
2022-11-17T03:53:36.433Z,97388.40
2022-11-17T03:56:34.318Z,97378.60
2022-11-17T03:59:34.341Z,97383.00
2022-11-17T04:14:42.513Z,97368.00
2022-11-17T04:28:31.017Z,97379.20
2022-11-17T04:31:32.140Z,97376.00
2022-11-17T04:34:35.165Z,97382.00
2022-11-17T05:06:58.832Z,97400.00
2022-11-17T05:17:11.786Z,97399.60
2022-11-17T05:20:09.626Z,97396.20
2022-11-17T05:23:24.783Z,97391.80
2022-11-17T05:26:24.475Z,97384.60
2022-11-17T05:29:22.289Z,97387.00
2022-11-17T05:32:20.512Z,97381.60
2022-11-17T05:35:18.078Z,97382.00
2022-11-17T05:38:15.970Z,97390.80
2022-11-17T05:41:17.841Z,97391.60
2022-11-17T05:44:15.418Z,97393.40
2022-11-17T05:47:13.023Z,97401.00
2022-11-17T05:50:15.320Z,97399.80
2022-11-17T05:53:23.526Z,97397.20
2022-11-17T06:00:01.005Z,97392.40
2022-11-17T06:03:00.157Z,97394.20
2022-11-17T06:06:00.170Z,97404.60
2022-11-17T06:08:57.921Z,97410.40
2022-11-17T06:11:56.815Z,97409.60
2022-11-17T06:14:56.085Z,97409.60
2022-11-17T06:17:53.539Z,97397.80
2022-11-17T06:20:51.852Z,97398.80
2022-11-17T06:23:49.323Z,97403.80
2022-11-17T06:26:46.768Z,97403.80
2022-11-17T06:29:45.116Z,97405.80
2022-11-17T06:32:44.063Z,97408.60
2022-11-17T06:35:41.629Z,97405.40
2022-11-17T06:38:39.133Z,97400.40
2022-11-17T06:41:36.604Z,97389.80
2022-11-17T06:44:34.077Z,97382.20
2022-11-17T06:47:31.591Z,97389.80
2022-11-17T06:50:29.054Z,97394.80
2022-11-17T06:53:33.122Z,97402.60
2022-11-17T06:56:36.362Z,97397.60
2022-11-17T06:59:48.017Z,97396.60
2022-11-17T07:02:54.705Z,97399.20
2022-11-17T07:09:13.620Z,97413.20
2022-11-17T07:12:11.152Z,97410.40
2022-11-17T07:15:08.700Z,97412.60
2022-11-17T07:18:06.248Z,97410.20
2022-11-17T07:21:04.789Z,97393.80
2022-11-17T07:24:02.358Z,97395.60
2022-11-17T07:26:59.905Z,97399.00
2022-11-17T07:29:57.456Z,97397.00
2022-11-17T07:32:58.180Z,97396.40
2022-11-17T07:35:56.293Z,97393.40
2022-11-17T07:38:53.751Z,97402.00
2022-11-17T07:41:51.206Z,97407.00
2022-11-17T07:44:48.667Z,97401.20
2022-11-17T07:47:46.461Z,97401.20
2022-11-17T07:50:43.904Z,97396.40
2022-11-17T07:53:41.405Z,97394.80
2022-11-17T07:56:38.848Z,97392.20
2022-11-17T07:59:36.294Z,97394.40
2022-11-17T08:02:33.721Z,97389.60
2022-11-17T08:05:32.477Z,97390.40
2022-11-17T08:08:29.926Z,97397.40
2022-11-17T08:11:28.484Z,97397.60
2022-11-17T08:14:26.005Z,97394.20
2022-11-17T08:17:23.899Z,97393.60
2022-11-17T08:20:21.698Z,97391.60
2022-11-17T08:23:19.153Z,97402.20
2022-11-17T08:26:16.640Z,97401.80
2022-11-17T08:29:14.077Z,97395.20
2022-11-17T08:32:14.922Z,97406.40
2022-11-17T08:35:12.377Z,97414.40
2022-11-17T08:38:11.749Z,97415.00
2022-11-17T08:41:09.204Z,97421.80
2022-11-17T08:44:06.656Z,97429.20
2022-11-17T08:47:04.132Z,97432.20
2022-11-17T08:50:01.595Z,97430.20
2022-11-17T08:52:59.855Z,97421.80
2022-11-17T08:55:57.358Z,97422.60
2022-11-17T08:58:54.836Z,97421.60
2022-11-17T09:01:52.293Z,97424.60
2022-11-17T09:04:50.721Z,97420.00
2022-11-17T09:07:48.406Z,97417.00
2022-11-17T09:10:49.589Z,97417.00
2022-11-17T09:13:48.260Z,97417.20
2022-11-17T09:16:45.719Z,97417.00
2022-11-17T09:19:43.146Z,97416.80
2022-11-17T09:22:40.637Z,97422.80
2022-11-17T09:25:38.091Z,97422.40
2022-11-17T09:28:35.786Z,97415.20
2022-11-17T09:31:33.988Z,97407.40
2022-11-17T09:34:31.681Z,97400.60
2022-11-17T09:37:31.652Z,97407.40
2022-11-17T09:40:33.183Z,97409.20
2022-11-17T09:43:32.225Z,97407.00
2022-11-17T09:46:29.681Z,97409.60
2022-11-17T09:49:27.125Z,97401.60
2022-11-17T09:52:24.580Z,97404.60
2022-11-17T09:55:22.041Z,97408.80
2022-11-17T09:58:19.495Z,97404.20
2022-11-17T10:01:17.195Z,97387.20
2022-11-17T10:04:14.668Z,97386.20
2022-11-17T10:07:12.123Z,97389.20
2022-11-17T10:10:09.593Z,97398.60
2022-11-17T10:13:07.047Z,97401.80
2022-11-17T10:16:04.484Z,97394.00
2022-11-17T10:19:01.944Z,97393.60
2022-11-17T10:21:59.395Z,97383.60
2022-11-17T10:24:58.739Z,97374.80
2022-11-17T10:27:56.233Z,97385.40
2022-11-17T10:30:53.720Z,97395.00
2022-11-17T10:33:51.225Z,97390.60
2022-11-17T10:36:48.725Z,97393.20
2022-11-17T10:39:46.184Z,97396.80
2022-11-17T10:42:43.625Z,97403.60
2022-11-17T10:45:41.072Z,97407.60
2022-11-17T10:48:38.581Z,97402.20
2022-11-17T10:51:36.096Z,97398.80
2022-11-17T10:54:33.592Z,97410.60
2022-11-17T10:57:31.022Z,97411.40
2022-11-17T11:00:28.532Z,97406.80
2022-11-17T11:03:25.995Z,97410.20
2022-11-17T11:06:23.838Z,97416.00
2022-11-17T11:09:21.284Z,97427.00
2022-11-17T11:12:18.730Z,97431.20
2022-11-17T11:15:16.193Z,97421.40
2022-11-17T11:18:14.760Z,97417.20
2022-11-17T11:21:12.616Z,97418.60
2022-11-17T11:24:10.583Z,97418.40
2022-11-17T11:27:08.049Z,97416.40
2022-11-17T11:30:05.513Z,97406.00
2022-11-17T11:33:02.978Z,97405.80
2022-11-17T11:36:00.439Z,97425.80
2022-11-17T11:38:57.881Z,97444.60
2022-11-17T11:41:55.341Z,97438.80
2022-11-17T11:44:52.812Z,97440.20
2022-11-17T11:47:50.249Z,97447.20
2022-11-17T11:50:47.702Z,97458.00
2022-11-17T11:53:45.151Z,97457.40
2022-11-17T11:56:42.587Z,97456.60
2022-11-17T11:59:40.125Z,97452.80
2022-11-17T12:02:37.623Z,97449.40
2022-11-17T12:05:35.193Z,97439.40
2022-11-17T12:08:32.800Z,97438.60
2022-11-17T12:11:56.324Z,97459.80
2022-11-17T12:14:53.816Z,97491.20
2022-11-17T12:17:51.252Z,97507.40
2022-11-17T12:20:48.756Z,97518.60
2022-11-17T12:23:46.218Z,97519.00
2022-11-17T12:26:43.699Z,97519.80
2022-11-17T12:29:41.196Z,97522.00
2022-11-17T12:32:38.643Z,97519.00
2022-11-17T12:35:36.275Z,97519.80
2022-11-17T12:38:33.717Z,97513.40
2022-11-17T12:41:31.182Z,97514.60
2022-11-17T12:44:28.660Z,97502.20
2022-11-17T12:47:26.150Z,97491.20
2022-11-17T12:50:23.604Z,97487.60
2022-11-17T12:53:21.074Z,97478.20
2022-11-17T12:56:18.584Z,97473.80
2022-11-17T12:59:16.057Z,97466.80
2022-11-17T13:02:13.543Z,97448.40
2022-11-17T13:05:17.083Z,97432.60
2022-11-17T13:08:14.588Z,97429.00
2022-11-17T13:11:12.128Z,97424.60
2022-11-17T13:14:10.388Z,97412.00
2022-11-17T13:17:08.479Z,97413.80
2022-11-17T13:20:05.987Z,97412.20
2022-11-17T13:23:04.607Z,97414.80
2022-11-17T13:26:02.126Z,97387.40
2022-11-17T13:28:59.753Z,97394.20
2022-11-17T13:31:57.310Z,97401.80
2022-11-17T13:34:56.651Z,97401.40
2022-11-17T13:37:54.206Z,97392.20
2022-11-17T13:40:51.716Z,97397.20
2022-11-17T13:43:49.373Z,97400.00
2022-11-17T13:46:47.055Z,97383.40
2022-11-17T13:49:44.605Z,97386.80
2022-11-17T13:52:46.908Z,97388.80
2022-11-17T13:55:44.974Z,97397.20
2022-11-17T13:58:42.535Z,97398.00
2022-11-17T14:01:40.087Z,97401.80
2022-11-17T14:04:37.729Z,97411.60
2022-11-17T14:07:35.267Z,97413.00
2022-11-17T14:10:33.276Z,97433.40
2022-11-17T14:13:30.781Z,97437.20
2022-11-17T14:16:28.452Z,97451.60
2022-11-17T14:19:26.354Z,97452.00
2022-11-17T14:22:30.902Z,97463.00
2022-11-17T14:25:29.361Z,97457.00
2022-11-17T14:28:26.974Z,97443.40
2022-11-17T14:31:24.493Z,97438.40
2022-11-17T14:34:22.061Z,97445.00
2022-11-17T14:37:19.891Z,97447.60
2022-11-17T14:40:18.125Z,97451.80
2022-11-17T14:43:15.707Z,97449.60
2022-11-17T14:46:13.252Z,97446.80
2022-11-17T14:49:10.775Z,97456.80
2022-11-17T14:52:08.338Z,97467.80
2022-11-17T14:55:05.855Z,97465.40
2022-11-17T14:58:03.381Z,97468.00
2022-11-17T15:01:00.949Z,97466.60
2022-11-17T15:03:58.779Z,97472.20
2022-11-17T15:06:57.218Z,97472.80
2022-11-17T15:09:54.733Z,97473.00
2022-11-17T15:12:52.475Z,97480.80
2022-11-17T15:15:49.975Z,97479.00
2022-11-17T15:18:47.789Z,97485.20
2022-11-17T15:21:45.406Z,97486.20
2022-11-17T15:24:42.895Z,97477.80
2022-11-17T15:27:40.385Z,97476.20
2022-11-17T15:30:37.910Z,97470.40
2022-11-17T15:33:35.367Z,97463.80
2022-11-17T15:36:33.033Z,97458.60
2022-11-17T15:39:31.012Z,97463.20
2022-11-17T15:42:28.443Z,97459.80
2022-11-17T15:45:26.363Z,97465.40
2022-11-17T15:48:23.804Z,97469.80
2022-11-17T15:51:21.262Z,97470.20
2022-11-17T15:54:20.958Z,97475.20
2022-11-17T15:57:18.769Z,97477.20
2022-11-17T16:00:16.340Z,97476.40
2022-11-17T16:03:13.807Z,97484.80
2022-11-17T16:06:11.259Z,97476.80
2022-11-17T16:09:08.726Z,97473.00
2022-11-17T16:12:06.363Z,97465.40
2022-11-17T16:15:05.276Z,97473.60
2022-11-17T16:18:02.747Z,97474.80
2022-11-17T16:21:04.218Z,97466.20
2022-11-17T16:24:02.370Z,97480.80
2022-11-17T16:27:00.018Z,97481.20
2022-11-17T16:29:57.607Z,97473.80
2022-11-17T16:32:55.133Z,97465.40
2022-11-17T16:35:52.573Z,97462.60
2022-11-17T16:39:00.246Z,97464.80
2022-11-17T16:42:00.119Z,97456.80
2022-11-17T16:44:57.644Z,97461.40
2022-11-17T16:47:55.128Z,97467.20
2022-11-17T16:50:52.622Z,97464.60
2022-11-17T16:53:50.145Z,97473.40
2022-11-17T16:56:48.197Z,97473.80
2022-11-17T16:59:46.918Z,97477.00
2022-11-17T17:02:44.440Z,97480.00
2022-11-17T17:05:42.511Z,97465.40
2022-11-17T17:08:41.646Z,97454.00
2022-11-17T17:11:39.162Z,97442.20
2022-11-17T17:14:37.019Z,97440.80
2022-11-17T17:17:34.483Z,97435.00
2022-11-17T17:20:32.330Z,97443.00
2022-11-17T17:23:29.916Z,97415.40
2022-11-17T17:26:27.380Z,97429.20
2022-11-17T17:29:28.651Z,97425.40
2022-11-17T17:32:28.510Z,97415.80
2022-11-17T17:35:26.048Z,97441.40
2022-11-17T17:38:25.624Z,97428.40
2022-11-17T17:41:24.317Z,97428.40
2022-11-17T17:44:22.286Z,97435.00
2022-11-17T17:47:20.603Z,97414.80
2022-11-17T17:50:18.777Z,97428.80
2022-11-17T17:53:17.018Z,97435.60
2022-11-17T17:56:15.703Z,97443.40
2022-11-17T17:59:16.285Z,97437.20
2022-11-17T18:02:16.312Z,97439.00
2022-11-17T18:05:17.090Z,97440.20
2022-11-17T18:08:14.823Z,97433.60
2022-11-17T18:11:13.818Z,97425.60
2022-11-17T18:14:12.235Z,97419.20
2022-11-17T18:17:10.815Z,97421.20
2022-11-17T18:20:10.800Z,97431.40
2022-11-17T18:23:09.251Z,97436.40
2022-11-17T18:26:08.090Z,97433.40
2022-11-17T18:29:07.925Z,97435.40
2022-11-17T18:32:05.998Z,97438.80
2022-11-17T18:35:03.893Z,97432.20
2022-11-17T18:38:04.853Z,97431.00
2022-11-17T18:41:03.702Z,97431.20
2022-11-17T18:44:01.751Z,97428.20
2022-11-17T18:47:03.046Z,97429.20
2022-11-17T18:50:01.798Z,97426.40
2022-11-17T18:53:02.861Z,97433.00
2022-11-17T18:56:01.338Z,97421.60
2022-11-17T18:59:00.420Z,97425.60
2022-11-17T19:02:01.011Z,97425.80
2022-11-17T19:05:02.119Z,97426.60
2022-11-17T19:08:01.071Z,97422.00
2022-11-17T19:11:06.045Z,97421.60
2022-11-17T19:14:05.491Z,97417.60
2022-11-17T19:17:04.240Z,97417.40
2022-11-17T19:20:06.104Z,97417.00
2022-11-17T19:23:08.316Z,97422.20
2022-11-17T19:26:07.681Z,97418.20
2022-11-17T19:29:14.273Z,97414.40
2022-11-17T19:32:14.061Z,97414.60
2022-11-17T19:35:18.368Z,97414.40
2022-11-17T19:38:21.255Z,97429.40
2022-11-17T19:41:19.438Z,97424.80
2022-11-17T19:44:20.953Z,97424.00
2022-11-17T19:47:25.534Z,97416.60
2022-11-17T19:50:24.218Z,97421.60
2022-11-17T19:53:23.109Z,97415.80
2022-11-17T19:56:22.309Z,97406.00
2022-11-17T19:59:21.081Z,97409.60
2022-11-17T20:02:19.800Z,97416.80
2022-11-17T20:05:18.688Z,97427.60
2022-11-17T20:08:17.503Z,97428.60
2022-11-17T20:11:18.825Z,97431.20
2022-11-17T20:14:16.899Z,97431.00
2022-11-17T20:17:15.585Z,97423.40
2022-11-17T20:20:16.258Z,97418.60
2022-11-17T20:23:14.070Z,97426.00
2022-11-17T20:26:12.108Z,97432.80
2022-11-17T20:29:10.131Z,97437.00
2022-11-17T20:32:08.616Z,97435.20
2022-11-17T20:35:06.850Z,97429.80
2022-11-17T20:38:05.070Z,97425.80
2022-11-17T20:41:03.556Z,97428.00
2022-11-17T20:44:02.844Z,97424.60
2022-11-17T20:47:01.205Z,97422.00
2022-11-17T20:49:59.984Z,97425.60
2022-11-17T20:52:58.761Z,97422.20
2022-11-17T20:55:56.654Z,97418.00
2022-11-17T20:58:54.737Z,97411.20
2022-11-17T21:01:52.561Z,97412.60
2022-11-17T21:04:50.672Z,97406.80
2022-11-17T21:07:49.300Z,97408.80
2022-11-17T21:10:46.934Z,97410.80
2022-11-17T21:13:44.975Z,97409.40
2022-11-17T21:16:47.066Z,97411.40
2022-11-17T21:19:44.735Z,97410.20
2022-11-17T21:22:42.216Z,97410.40
2022-11-17T21:25:40.131Z,97411.00
2022-11-17T21:28:37.608Z,97414.80
2022-11-17T21:31:35.528Z,97415.20
2022-11-17T21:34:33.240Z,97405.60
2022-11-17T21:37:30.768Z,97414.80
2022-11-17T21:40:28.343Z,97425.20
2022-11-17T21:43:25.970Z,97429.40
2022-11-17T21:46:23.469Z,97432.40
2022-11-17T21:49:21.965Z,97436.40
2022-11-17T21:52:19.524Z,97437.80
2022-11-17T21:55:16.974Z,97431.20
2022-11-17T21:58:14.443Z,97424.60
2022-11-17T22:01:12.958Z,97429.40
2022-11-17T22:04:10.654Z,97430.00
2022-11-17T22:07:08.149Z,97428.80
2022-11-17T22:10:05.713Z,97421.20
2022-11-17T22:13:03.237Z,97414.40
2022-11-17T22:16:01.665Z,97413.60
2022-11-17T22:18:59.180Z,97412.80
2022-11-17T22:21:56.642Z,97415.80
2022-11-17T22:24:54.179Z,97394.80
2022-11-17T22:27:51.643Z,97389.20
2022-11-17T22:30:49.115Z,97402.40
2022-11-17T22:33:46.609Z,97400.00
2022-11-17T22:36:44.086Z,97397.80
2022-11-17T22:39:41.552Z,97407.20
2022-11-17T22:42:39.009Z,97400.20
2022-11-17T22:45:36.476Z,97398.80
2022-11-17T22:48:33.950Z,97398.60
2022-11-17T22:51:57.670Z,97399.40
2022-11-17T22:54:55.137Z,97394.80
2022-11-17T22:57:52.642Z,97406.00
2022-11-17T23:00:50.128Z,97399.20
2022-11-17T23:03:47.616Z,97393.20
2022-11-17T23:06:45.139Z,97382.80
2022-11-17T23:09:42.601Z,97385.00
2022-11-17T23:12:40.061Z,97389.40
2022-11-17T23:15:37.520Z,97378.80
2022-11-17T23:18:36.762Z,97386.80
2022-11-17T23:21:34.237Z,97396.20
2022-11-17T23:24:31.749Z,97390.20
2022-11-17T23:27:29.205Z,97378.00
2022-11-17T23:30:26.703Z,97376.80
2022-11-17T23:33:24.161Z,97383.20
2022-11-17T23:36:21.625Z,97378.60
2022-11-17T23:39:19.394Z,97369.80
2022-11-17T23:42:16.920Z,97368.20
2022-11-17T23:45:14.374Z,97375.60
2022-11-17T23:48:11.831Z,97379.60
2022-11-17T23:51:09.288Z,97380.80
2022-11-17T23:54:07.299Z,97377.40
2022-11-17T23:57:04.746Z,97371.60
